Time;durP1;ratioP1;P1;durP2;ratioP2;P2;SDS_P1;SDS_P2;PMS_P1;PMS_P2;Temp;Humidity;BMP_temperature;BMP_pressure;BME280_temperature;BME280_humidity;BME280_pressure;Samples;Min_cycle;Max_cycle;Signal;HPM_P1;HPM_P2
2021/10/09 00:00:03;;;;;;;;;;;;;;;11.77;81.59;100700.31;5094174;28;19966;-22
2021/10/09 00:02:28;;;;;;;;;;;;;;;11.69;83.45;100703.22;5112740;28;19915;-21
2021/10/09 00:04:54;;;;;;;;;;;;;;;11.74;82.73;100708.75;5112350;28;19919;-22
2021/10/09 00:07:19;;;;;;;;;;;;;;;11.69;82.42;100703.22;5112603;28;20002;-21
2021/10/09 00:09:45;;;;;;;;;;;;;;;12.08;81.66;100696.13;5112396;28;19912;-21
2021/10/09 00:12:10;;;;;;;;;;;;;;;11.92;82.19;100703.59;5112616;28;20002;-21
2021/10/09 00:14:35;;;;;;;;;;;;;;;11.98;81.37;100713.44;5112305;28;19919;-21
2021/10/09 00:17:01;;;;;;;;;;;;;;;12.09;80.35;100709.25;5112182;28;19911;-21
2021/10/09 00:19:26;;;;;;;;;;;;;;;11.91;81.31;100712.66;5112271;28;19916;-21
2021/10/09 00:21:51;;;;;;;;;;;;;;;11.76;81.95;100717.38;5112199;28;20428;-21
2021/10/09 00:24:17;;;;;;;;;;;;;;;11.76;82.09;100718.19;5112456;28;20386;-21
2021/10/09 00:26:43;;;;;;;;;;;;;;;12.00;81.67;100711.38;5111857;28;19922;-22
2021/10/09 00:29:08;;;;;;;;;;;;;;;12.01;80.73;100707.69;5112097;28;20394;-22
2021/10/09 00:31:34;;;;;;;;;;;;;;;11.59;81.49;100703.69;5111949;28;20688;-21
2021/10/09 00:33:59;;;;;;;;;;;;;;;11.40;81.92;100710.69;5112545;28;19935;-21
2021/10/09 00:36:25;;;;;;;;;;;;;;;12.02;80.23;100709.31;5111873;28;19916;-21
2021/10/09 00:38:50;;;;;;;;;;;;;;;11.99;79.25;100696.38;5111589;28;19916;-21
2021/10/09 00:41:15;;;;;;;;;;;;;;;11.88;79.32;100697.00;5111767;28;19911;-21
2021/10/09 00:43:40;;;;;;;;;;;;;;;11.73;80.36;100691.06;5111916;28;19912;-21
2021/10/09 00:46:06;;;;;;;;;;;;;;;11.91;79.98;100691.28;5111823;28;20248;-21
2021/10/09 00:48:32;;;;;;;;;;;;;;;11.90;80.42;100689.63;5111756;28;19911;-21
2021/10/09 00:50:57;;;;;;;;;;;;;;;11.77;80.58;100689.63;5111753;28;20397;-21
2021/10/09 00:53:22;;;;;;;;;;;;;;;11.68;81.20;100685.56;5111985;28;19919;-21
2021/10/09 00:55:48;;;;;;;;;;;;;;;11.71;81.62;100685.13;5076718;28;19920;-21
2021/10/09 00:58:14;;;;;;;;;;;;;;;11.81;81.28;100685.50;5091105;28;19911;-21
2021/10/09 01:00:40;;;;;;;;;;;;;;;12.01;80.74;100682.78;5090944;28;19952;-21
2021/10/09 01:03:05;;;;;;;;;;;;;;;12.13;80.88;100682.94;5073373;28;20582;-21
2021/10/09 01:05:31;;;;;;;;;;;;;;;11.74;81.49;100684.72;5090935;28;19923;-21
2021/10/09 01:07:56;;;;;;;;;;;;;;;11.54;82.11;100688.25;5090835;28;19916;-21
2021/10/09 01:10:22;;;;;;;;;;;;;;;11.15;83.80;100683.81;5090768;28;19915;-21
2021/10/09 01:12:47;;;;;;;;;;;;;;;11.44;83.35;100679.88;5090593;28;20338;-21
2021/10/09 01:15:16;;;;;;;;;;;;;;;11.23;84.02;100679.09;5090913;28;20437;-21
2021/10/09 01:17:41;;;;;;;;;;;;;;;11.35;83.40;100673.13;5090865;28;19919;-21
2021/10/09 01:20:10;;;;;;;;;;;;;;;11.33;83.75;100676.00;5090830;28;19916;-21
2021/10/09 01:22:35;;;;;;;;;;;;;;;11.29;84.05;100673.97;5090366;28;19919;-21
2021/10/09 01:25:00;;;;;;;;;;;;;;;11.42;83.38;100674.75;5090548;28;19916;-21
2021/10/09 01:27:26;;;;;;;;;;;;;;;11.45;83.03;100674.31;5091018;28;20435;-21
2021/10/09 01:29:51;;;;;;;;;;;;;;;11.29;83.53;100665.94;5072529;28;19923;-21
2021/10/09 01:32:16;;;;;;;;;;;;;;;11.15;84.14;100671.28;5090956;28;20020;-21
2021/10/09 01:34:41;;;;;;;;;;;;;;;11.31;83.31;100671.91;5090381;28;19923;-21
2021/10/09 01:37:07;;;;;;;;;;;;;;;11.23;83.31;100675.59;5090262;28;20367;-21
2021/10/09 01:39:32;;;;;;;;;;;;;;;11.26;83.81;100678.69;5090275;28;19912;-21
2021/10/09 01:41:57;;;;;;;;;;;;;;;11.32;83.75;100670.84;5072341;28;19916;-21
2021/10/09 01:44:23;;;;;;;;;;;;;;;11.17;84.64;100668.44;5090027;28;19918;-21
2021/10/09 01:46:48;;;;;;;;;;;;;;;11.12;85.44;100678.91;5089975;28;20020;-21
2021/10/09 01:49:13;;;;;;;;;;;;;;;10.89;86.26;100674.00;5090208;28;19918;-21
2021/10/09 01:51:38;;;;;;;;;;;;;;;11.06;85.58;100673.38;5090178;28;19911;-21
2021/10/09 01:54:04;;;;;;;;;;;;;;;11.37;83.98;100665.72;5091805;28;19915;-21
2021/10/09 01:56:29;;;;;;;;;;;;;;;11.17;84.07;100666.56;5110388;28;19992;-21
2021/10/09 01:58:54;;;;;;;;;;;;;;;11.41;83.22;100669.63;5110390;28;20345;-22
2021/10/09 02:01:20;;;;;;;;;;;;;;;11.16;84.36;100672.13;5109818;28;19911;-21
2021/10/09 02:03:47;;;;;;;;;;;;;;;11.20;84.30;100668.84;5110264;28;20371;-21
2021/10/09 02:06:13;;;;;;;;;;;;;;;11.21;84.31;100669.66;5110105;28;19973;-21
2021/10/09 02:08:38;;;;;;;;;;;;;;;11.19;84.71;100671.72;5109847;28;19916;-21
2021/10/09 02:11:07;;;;;;;;;;;;;;;11.10;84.83;100673.78;5110094;28;19973;-21
2021/10/09 02:26:53;;;;;;;;;;;;;;;11.05;84.53;100689.56;5091840;28;19953;-21
2021/10/09 02:29:18;;;;;;;;;;;;;;;11.19;83.74;100693.88;5109815;28;20326;-21
2021/10/09 02:31:43;;;;;;;;;;;;;;;10.96;85.18;100693.50;5109807;28;19927;-21
2021/10/09 02:34:09;;;;;;;;;;;;;;;10.88;84.40;100693.72;5109965;28;19920;-21
2021/10/09 02:36:34;;;;;;;;;;;;;;;11.01;85.45;100696.34;5109415;28;19916;-21
2021/10/09 02:38:59;;;;;;;;;;;;;;;10.88;84.93;100697.19;5109829;28;20410;-21
2021/10/09 02:41:24;;;;;;;;;;;;;;;10.89;85.09;100692.66;5109792;28;19919;-21
2021/10/09 02:43:50;;;;;;;;;;;;;;;10.84;84.67;100696.78;5109712;28;20373;-21
2021/10/09 02:46:15;;;;;;;;;;;;;;;11.03;83.35;100687.13;5109730;28;19912;-21
2021/10/09 02:48:40;;;;;;;;;;;;;;;11.03;83.96;100688.97;5109903;28;20397;-22
2021/10/09 02:51:06;;;;;;;;;;;;;;;11.25;82.37;100682.38;5109584;28;19911;-21
2021/10/09 02:53:31;;;;;;;;;;;;;;;11.12;83.22;100689.59;5109895;28;19911;-21
2021/10/09 02:55:56;;;;;;;;;;;;;;;11.04;84.03;100685.28;5109649;28;19930;-21
2021/10/09 02:58:21;;;;;;;;;;;;;;;10.96;83.63;100688.16;5109605;28;20339;-21
2021/10/09 03:00:47;;;;;;;;;;;;;;;10.98;83.59;100680.78;5109352;28;20026;-21
2021/10/09 03:03:12;;;;;;;;;;;;;;;10.85;84.43;100693.09;5109607;28;20410;-21
2021/10/09 03:05:37;;;;;;;;;;;;;;;10.70;84.24;100680.97;5109398;28;19916;-21
2021/10/09 03:08:03;;;;;;;;;;;;;;;10.73;84.35;100684.06;5110014;28;19976;-21
2021/10/09 03:10:29;;;;;;;;;;;;;;;11.08;83.26;100689.19;5109365;28;20354;-21
2021/10/09 03:12:54;;;;;;;;;;;;;;;11.43;82.06;100686.25;5110677;28;19912;-21
2021/10/09 03:15:19;;;;;;;;;;;;;;;11.40;82.77;100697.34;5113547;28;20121;-21
2021/10/09 03:17:45;;;;;;;;;;;;;;;11.39;82.53;100690.38;5113566;28;20665;-21
2021/10/09 03:20:10;;;;;;;;;;;;;;;11.49;82.18;100692.59;5113299;28;20006;-21
2021/10/09 03:22:36;;;;;;;;;;;;;;;11.62;81.20;100687.22;5113287;28;19912;-21
2021/10/09 03:25:01;;;;;;;;;;;;;;;11.66;81.19;100691.91;5113509;28;20333;-21
2021/10/09 03:27:26;;;;;;;;;;;;;;;11.43;82.36;100688.91;5113448;28;19966;-21
2021/10/09 03:29:51;;;;;;;;;;;;;;;11.69;81.61;100692.53;5113391;28;20314;-21
2021/10/09 03:32:17;;;;;;;;;;;;;;;11.92;80.84;100694.75;5113143;28;19916;-21
2021/10/09 03:34:42;;;;;;;;;;;;;;;11.85;80.77;100687.56;5112863;28;20400;-21
2021/10/09 03:37:08;;;;;;;;;;;;;;;11.48;82.17;100701.63;5112531;28;19916;-28
2021/10/09 03:39:35;;;;;;;;;;;;;;;11.53;82.50;100696.50;5111867;28;19912;-21
2021/10/09 03:42:47;;;;;;;;;;;;;;;11.53;82.50;100693.84;5112676;28;20302;-21
2021/10/09 03:52:48;;;;;;;;;;;;;;;11.26;82.79;100705.38;5112681;28;19972;-21
2021/10/09 03:55:15;;;;;;;;;;;;;;;11.07;82.74;100692.88;5112679;28;19916;-21
2021/10/09 03:57:41;;;;;;;;;;;;;;;11.53;81.14;100705.31;5112531;28;19915;-21
2021/10/09 04:00:09;;;;;;;;;;;;;;;11.19;82.79;100704.56;5113161;28;20024;-21
2021/10/09 04:02:34;;;;;;;;;;;;;;;11.39;82.31;100709.06;5112357;28;20386;-21
2021/10/09 04:05:00;;;;;;;;;;;;;;;11.72;80.42;100708.97;5112551;28;19920;-21
2021/10/09 04:07:25;;;;;;;;;;;;;;;11.63;80.79;100700.38;5112992;28;19911;-21
2021/10/09 04:09:50;;;;;;;;;;;;;;;11.62;80.72;100704.06;5112553;28;19916;-21
2021/10/09 04:12:16;;;;;;;;;;;;;;;11.79;80.16;100711.59;5112580;28;19915;-21
2021/10/09 04:14:41;;;;;;;;;;;;;;;11.43;81.33;100710.28;5112346;28;19916;-21
2021/10/09 04:17:06;;;;;;;;;;;;;;;11.39;81.94;100706.38;5112482;28;19915;-21
2021/10/09 04:19:32;;;;;;;;;;;;;;;11.25;82.26;100706.41;5112439;28;19915;-21
2021/10/09 04:21:57;;;;;;;;;;;;;;;11.36;82.68;100709.47;5112141;28;19915;-21
2021/10/09 04:24:22;;;;;;;;;;;;;;;11.17;82.88;100709.28;5111616;28;19915;-21
2021/10/09 04:26:48;;;;;;;;;;;;;;;11.26;82.84;100710.72;5111687;28;19915;-21
2021/10/09 04:29:13;;;;;;;;;;;;;;;11.30;82.74;100707.63;5112200;28;19984;-21
2021/10/09 04:31:38;;;;;;;;;;;;;;;11.19;82.57;100709.91;5112141;28;19964;-21
2021/10/09 04:34:03;;;;;;;;;;;;;;;11.25;83.01;100713.59;5112085;28;20390;-21
2021/10/09 04:36:29;;;;;;;;;;;;;;;11.60;81.92;100711.47;5111895;28;19912;-22
2021/10/09 04:38:54;;;;;;;;;;;;;;;11.58;81.27;100710.84;5111751;28;20370;-21
2021/10/09 04:41:19;;;;;;;;;;;;;;;11.60;81.43;100716.81;5111889;28;19919;-21
2021/10/09 04:43:44;;;;;;;;;;;;;;;11.72;80.79;100718.84;5112160;28;19912;-21
2021/10/09 04:46:10;;;;;;;;;;;;;;;11.56;81.20;100726.25;5112136;28;19915;-21
2021/10/09 04:48:35;;;;;;;;;;;;;;;11.38;82.34;100732.28;5111259;28;19911;-21
2021/10/09 04:51:00;;;;;;;;;;;;;;;11.43;81.66;100727.13;5111710;28;20292;-21
2021/10/09 04:53:25;;;;;;;;;;;;;;;11.66;80.67;100731.19;5111679;28;19994;-21
2021/10/09 04:55:51;;;;;;;;;;;;;;;11.72;81.32;100729.53;5111344;28;19919;-21
2021/10/09 04:58:16;;;;;;;;;;;;;;;11.62;80.72;100738.78;5111550;28;19998;-21
2021/10/09 05:00:41;;;;;;;;;;;;;;;11.74;80.33;100738.16;5111774;28;19912;-21
2021/10/09 05:03:07;;;;;;;;;;;;;;;11.57;80.75;100743.94;5111497;28;19922;-21
2021/10/09 05:05:32;;;;;;;;;;;;;;;11.60;80.70;100751.53;5111178;28;19960;-21
2021/10/09 05:07:57;;;;;;;;;;;;;;;11.39;81.63;100741.91;5111437;28;19922;-21
2021/10/09 05:10:25;;;;;;;;;;;;;;;11.58;80.84;100753.59;5111450;28;20379;-21
2021/10/09 05:12:50;;;;;;;;;;;;;;;11.21;82.26;100758.56;5110958;28;19911;-21
2021/10/09 05:15:16;;;;;;;;;;;;;;;11.25;82.49;100761.66;5111535;28;19916;-21
2021/10/09 05:17:41;;;;;;;;;;;;;;;11.17;82.65;100759.19;5111247;28;19966;-21
2021/10/09 05:20:06;;;;;;;;;;;;;;;11.38;82.38;100766.16;5111023;28;19958;-21
2021/10/09 05:22:33;;;;;;;;;;;;;;;11.35;82.02;100766.59;5111121;28;20006;-21
2021/10/09 05:24:58;;;;;;;;;;;;;;;10.98;83.68;100761.66;5110990;28;19944;-21
2021/10/09 05:27:25;;;;;;;;;;;;;;;10.99;83.58;100767.81;5110856;28;20014;-21
2021/10/09 05:29:51;;;;;;;;;;;;;;;10.99;83.71;100773.13;5110915;28;19945;-21
2021/10/09 05:32:23;;;;;;;;;;;;;;;10.85;84.71;100773.13;5110958;28;19916;-21
2021/10/09 05:34:48;;;;;;;;;;;;;;;10.93;85.38;100779.28;5110529;28;20006;-21
2021/10/09 05:37:14;;;;;;;;;;;;;;;11.11;82.25;100776.03;5109818;28;20014;-21
2021/10/09 05:39:39;;;;;;;;;;;;;;;11.04;83.19;100776.03;5110821;28;19912;-21
2021/10/09 05:42:04;;;;;;;;;;;;;;;11.45;81.48;100783.00;5110721;28;20443;-21
2021/10/09 05:44:30;;;;;;;;;;;;;;;11.48;80.69;100787.91;5110599;28;19912;-21
2021/10/09 05:46:55;;;;;;;;;;;;;;;11.42;80.78;100791.41;5110349;28;19915;-21
2021/10/09 05:49:20;;;;;;;;;;;;;;;11.27;81.09;100792.44;5110516;28;19920;-21
2021/10/09 05:55:09;;;;;;;;;;;;;;;10.96;80.79;100784.25;5110237;28;19923;-21
2021/10/09 05:57:22;;;;;;;;;;;;;;;11.22;80.64;100781.59;5092621;28;20314;-21
2021/10/09 06:38:00;;;;;;;;;;;;;;;11.12;82.28;100826.56;5109726;28;19919;-20
2021/10/09 06:46:16;;;;;;;;;;;;;;;11.20;81.30;100823.69;5077953;28;19918;-21
2021/10/09 06:59:37;;;;;;;;;;;;;;;11.34;80.55;100840.53;5116852;28;19958;-20
2021/10/09 07:02:02;;;;;;;;;;;;;;;11.38;80.64;100831.09;5116528;28;20375;-20
2021/10/09 07:04:27;;;;;;;;;;;;;;;11.15;82.07;100842.16;5116569;28;19923;-20
2021/10/09 07:06:54;;;;;;;;;;;;;;;10.92;83.77;100841.72;5116201;28;19927;-20
2021/10/09 07:09:19;;;;;;;;;;;;;;;11.18;84.12;100835.59;5116176;28;20474;-20
2021/10/09 07:11:45;;;;;;;;;;;;;;;11.19;82.18;100843.38;5116499;28;19955;-20
2021/10/09 07:14:10;;;;;;;;;;;;;;;11.18;83.68;100843.59;5116421;28;19916;-20
2021/10/09 07:16:35;;;;;;;;;;;;;;;11.33;81.77;100844.22;5116134;28;19918;-21
2021/10/09 07:19:01;;;;;;;;;;;;;;;11.82;79.91;100847.50;5116190;28;20291;-20
2021/10/09 07:21:26;;;;;;;;;;;;;;;11.93;79.79;100846.91;5116268;28;20299;-20
2021/10/09 07:23:52;;;;;;;;;;;;;;;11.32;81.08;100850.59;5116206;28;19934;-20
2021/10/09 07:26:17;;;;;;;;;;;;;;;11.18;82.57;100857.78;5116276;28;19919;-20
2021/10/09 07:28:42;;;;;;;;;;;;;;;11.13;83.32;100849.53;5116099;28;19915;-20
2021/10/09 07:31:08;;;;;;;;;;;;;;;11.17;83.18;100856.13;5116073;28;19922;-21
2021/10/09 07:33:33;;;;;;;;;;;;;;;11.21;83.48;100857.34;5115802;28;19916;-21
2021/10/09 07:35:58;;;;;;;;;;;;;;;11.58;82.65;100851.63;5116224;28;20014;-21
2021/10/09 07:38:23;;;;;;;;;;;;;;;11.96;80.39;100854.50;5116331;28;20034;-20
2021/10/09 07:40:49;;;;;;;;;;;;;;;11.98;79.24;100856.97;5115800;28;20291;-21
2021/10/09 07:43:14;;;;;;;;;;;;;;;11.42;81.16;100859.03;5116117;28;19919;-20
2021/10/09 07:45:39;;;;;;;;;;;;;;;11.36;80.53;100861.69;5115982;28;19923;-20
2021/10/09 07:48:05;;;;;;;;;;;;;;;11.52;81.76;100858.59;5116183;28;19998;-20
2021/10/09 07:50:30;;;;;;;;;;;;;;;11.79;79.80;100869.28;5115669;28;19918;-20
2021/10/09 07:52:55;;;;;;;;;;;;;;;12.11;77.71;100866.81;5115642;28;20007;-21
2021/10/09 07:55:20;;;;;;;;;;;;;;;11.82;79.88;100874.22;5115747;28;20399;-20
2021/10/09 07:57:46;;;;;;;;;;;;;;;11.27;81.61;100872.56;5116049;28;19912;-20
2021/10/09 08:00:11;;;;;;;;;;;;;;;11.16;82.66;100878.50;5112311;28;20000;-20
2021/10/09 08:02:36;;;;;;;;;;;;;;;10.94;82.81;100882.38;5112350;28;20394;-20
2021/10/09 08:05:05;;;;;;;;;;;;;;;11.10;83.73;100876.66;5112517;28;20363;-20
2021/10/09 08:07:31;;;;;;;;;;;;;;;11.13;83.25;100868.22;5112473;28;19911;-20
2021/10/09 08:09:57;;;;;;;;;;;;;;;11.51;81.22;100874.84;5112715;28;20398;-20
2021/10/09 08:12:22;;;;;;;;;;;;;;;11.32;82.06;100879.13;5112752;28;19912;-20
2021/10/09 08:14:47;;;;;;;;;;;;;;;11.12;83.02;100879.94;5112326;28;19976;-21
2021/10/09 08:17:12;;;;;;;;;;;;;;;11.17;83.60;100871.31;5112299;28;20435;-20
2021/10/09 08:19:38;;;;;;;;;;;;;;;11.08;83.42;100877.88;5112449;28;19923;-20
2021/10/09 08:22:07;;;;;;;;;;;;;;;11.09;84.20;100875.00;5112305;28;19938;-20
2021/10/09 08:24:38;;;;;;;;;;;;;;;11.17;83.93;100877.47;5112146;28;19968;-20
2021/10/09 08:40:30;;;;;;;;;;;;;;;12.35;78.44;100879.50;5112102;28;19955;-20
2021/10/09 08:42:55;;;;;;;;;;;;;;;12.31;78.77;100893.50;5111778;28;19962;-20
2021/10/09 08:45:21;;;;;;;;;;;;;;;11.84;79.99;100888.19;5093590;28;19992;-21
2021/10/09 08:47:47;;;;;;;;;;;;;;;12.18;79.05;100891.69;5111887;28;20367;-20
2021/10/09 08:50:13;;;;;;;;;;;;;;;11.84;77.96;100883.66;5111533;28;20344;-20
2021/10/09 08:52:54;;;;;;;;;;;;;;;11.87;78.01;100890.47;5111493;28;19912;-20
2021/10/09 08:55:20;;;;;;;;;;;;;;;12.33;77.15;100891.44;5111487;28;19915;-21
2021/10/09 08:57:47;;;;;;;;;;;;;;;12.23;76.61;100887.34;5111442;28;19919;-20
2021/10/09 09:00:13;;;;;;;;;;;;;;;12.49;76.08;100884.81;5111528;28;19916;-20
2021/10/09 09:02:44;;;;;;;;;;;;;;;12.34;77.85;100885.88;5111294;28;20052;-20
2021/10/09 09:26:50;;;;;;;;;;;;;;;12.12;77.45;100889.84;5111053;28;19919;-20
2021/10/09 09:39:37;;;;;;;;;;;;;;;12.37;78.29;100904.16;5110889;28;19915;-20
2021/10/09 09:42:03;;;;;;;;;;;;;;;12.30;79.05;100903.38;5110499;28;20017;-20
2021/10/09 09:44:28;;;;;;;;;;;;;;;12.16;77.33;100901.78;5110604;28;19999;-20
2021/10/09 09:47:01;;;;;;;;;;;;;;;12.39;77.57;100907.47;5110337;28;19912;-21
2021/10/09 09:49:27;;;;;;;;;;;;;;;12.16;79.15;100902.59;5110597;28;19919;-20
2021/10/09 09:51:52;;;;;;;;;;;;;;;12.01;79.69;100900.16;5110375;28;20386;-21
2021/10/09 09:54:18;;;;;;;;;;;;;;;12.08;78.16;100902.81;5088364;28;19916;-20
2021/10/09 09:56:43;;;;;;;;;;;;;;;12.31;77.34;100910.34;5071856;28;19947;-20
2021/10/09 09:59:08;;;;;;;;;;;;;;;12.35;77.35;100903.56;5072299;28;19923;-20
2021/10/09 10:01:34;;;;;;;;;;;;;;;12.45;77.09;100897.78;5071969;28;20307;-20
2021/10/09 10:03:59;;;;;;;;;;;;;;;12.53;77.04;100910.09;5071977;28;19916;-20
2021/10/09 10:06:28;;;;;;;;;;;;;;;12.63;75.84;100907.81;5089741;28;19972;-20
2021/10/09 10:08:54;;;;;;;;;;;;;;;12.46;78.10;100900.25;5071879;28;19916;-20
2021/10/09 10:11:20;;;;;;;;;;;;;;;12.29;78.78;100895.56;5089881;28;19923;-20
2021/10/09 10:13:45;;;;;;;;;;;;;;;12.19;78.76;100902.16;5071702;28;19916;-20
2021/10/09 10:16:11;;;;;;;;;;;;;;;12.15;79.36;100900.94;5071533;28;19934;-20
2021/10/09 10:18:45;;;;;;;;;;;;;;;12.18;78.83;100899.72;5089498;28;19912;-20
2021/10/09 10:21:14;;;;;;;;;;;;;;;12.26;79.06;100894.13;5089737;28;19923;-20
2021/10/09 10:23:41;;;;;;;;;;;;;;;12.48;77.55;100899.19;5089584;28;19916;-21
2021/10/09 10:26:36;;;;;;;;;;;;;;;12.23;80.37;100894.53;5089500;28;19935;-21
2021/10/09 10:29:01;;;;;;;;;;;;;;;12.03;78.93;100897.25;5071885;28;19974;-20
2021/10/09 10:31:27;;;;;;;;;;;;;;;11.95;79.94;100900.97;5089378;28;19920;-21
2021/10/09 10:34:00;;;;;;;;;;;;;;;12.06;80.49;100900.34;5089632;28;19916;-20
2021/10/09 10:36:39;;;;;;;;;;;;;;;12.00;80.85;100893.16;5072363;28;19962;-20
2021/10/09 10:39:04;;;;;;;;;;;;;;;12.25;78.99;100900.50;5089328;28;19997;-20
2021/10/09 10:41:48;;;;;;;;;;;;;;;12.42;78.33;100901.72;5089481;28;20039;-20
2021/10/09 10:44:32;;;;;;;;;;;;;;;12.50;78.45;100902.50;5089709;28;19912;-20
2021/10/09 10:47:03;;;;;;;;;;;;;;;12.01;79.05;100899.31;5089236;28;19912;-20
2021/10/09 10:49:46;;;;;;;;;;;;;;;11.85;79.76;100889.84;5072026;28;19916;-20
2021/10/09 10:52:15;;;;;;;;;;;;;;;12.01;79.80;100889.47;5089219;28;20383;-20
2021/10/09 10:54:59;;;;;;;;;;;;;;;12.38;78.11;100881.75;5095955;28;19919;-20
2021/10/09 10:57:25;;;;;;;;;;;;;;;12.35;77.54;100887.50;5109759;28;19943;-20
2021/10/09 10:59:56;;;;;;;;;;;;;;;12.35;77.18;100887.50;5109498;28;19955;-20
2021/10/09 11:02:22;;;;;;;;;;;;;;;12.40;77.84;100886.88;5109691;28;19916;-20
2021/10/09 11:04:53;;;;;;;;;;;;;;;12.52;78.44;100884.38;5109227;28;19912;-20
2021/10/09 11:07:19;;;;;;;;;;;;;;;12.46;78.44;100876.19;5109686;28;19912;-20
2021/10/09 11:09:44;;;;;;;;;;;;;;;12.41;76.44;100886.66;5109550;28;19912;-20
2021/10/09 11:12:19;;;;;;;;;;;;;;;12.35;78.11;100884.84;5109385;28;19918;-20
2021/10/09 11:14:45;;;;;;;;;;;;;;;12.34;75.20;100885.88;5109259;28;19916;-20
2021/10/09 11:17:10;;;;;;;;;;;;;;;12.17;78.55;100887.34;5109623;28;19911;-24
2021/10/09 11:19:42;;;;;;;;;;;;;;;11.97;79.61;100893.56;5109692;28;19915;-20
2021/10/09 11:22:08;;;;;;;;;;;;;;;12.22;78.99;100890.25;5109530;28;19922;-20
2021/10/09 11:24:46;;;;;;;;;;;;;;;12.11;77.55;100891.69;5109220;28;19915;-20
2021/10/09 11:27:12;;;;;;;;;;;;;;;12.00;78.76;100893.16;5109444;28;19980;-20
2021/10/09 11:29:37;;;;;;;;;;;;;;;11.85;78.77;100895.19;5109219;28;20007;-20
2021/10/09 11:32:03;;;;;;;;;;;;;;;12.01;79.61;100889.47;5109363;28;20386;-20
2021/10/09 11:34:29;;;;;;;;;;;;;;;12.15;78.41;100894.75;5110173;28;19922;-20
2021/10/09 11:36:54;;;;;;;;;;;;;;;12.23;78.12;100886.53;5112880;28;19911;-20
2021/10/09 11:39:23;;;;;;;;;;;;;;;12.02;79.66;100888.41;5112979;28;19919;-20
2021/10/09 11:42:04;;;;;;;;;;;;;;;12.18;79.07;100883.66;5113079;28;19963;-20
2021/10/09 11:44:36;;;;;;;;;;;;;;;12.28;79.10;100889.41;5113263;28;20446;-20
2021/10/09 11:55:27;;;;;;;;;;;;;;;12.13;77.18;100870.09;5010080;28;20099;-20
2021/10/09 11:57:52;;;;;;;;;;;;;;;11.97;77.64;100874.88;5072092;28;20023;-20
2021/10/09 12:00:38;;;;;;;;;;;;;;;12.23;78.42;100875.81;5112685;28;20026;-20
2021/10/09 12:03:22;;;;;;;;;;;;;;;12.23;78.27;100875.81;5112094;28;20421;-20
2021/10/09 12:05:54;;;;;;;;;;;;;;;12.30;78.24;100876.63;5112755;28;19916;-20
2021/10/09 12:08:26;;;;;;;;;;;;;;;12.20;79.27;100881.59;5112624;28;19919;-20
2021/10/09 12:11:07;;;;;;;;;;;;;;;12.28;79.00;100889.41;5112167;28;19919;-20
2021/10/09 12:13:43;;;;;;;;;;;;;;;11.72;79.83;100879.97;5112523;28;19923;-20
2021/10/09 12:16:08;;;;;;;;;;;;;;;11.90;79.89;100884.72;5112610;28;19919;-21
2021/10/09 12:18:56;;;;;;;;;;;;;;;11.95;80.01;100878.75;5112173;28;19916;-20
2021/10/09 12:21:22;;;;;;;;;;;;;;;12.00;79.05;100877.09;5112207;28;20379;-20
2021/10/09 12:23:48;;;;;;;;;;;;;;;12.18;79.68;100875.66;5112292;28;19923;-20
2021/10/09 12:26:14;;;;;;;;;;;;;;;12.03;79.97;100876.69;5112187;28;19915;-20
2021/10/09 12:28:57;;;;;;;;;;;;;;;11.96;79.80;100870.53;5112032;28;19972;-20
2021/10/09 12:31:26;;;;;;;;;;;;;;;11.98;80.60;100879.16;5112004;28;19919;-20
2021/10/09 12:33:52;;;;;;;;;;;;;;;12.31;78.95;100872.09;5112200;28;19976;-20
2021/10/09 12:36:27;;;;;;;;;;;;;;;12.01;78.66;100872.56;5093869;28;19912;-20
2021/10/09 12:38:52;;;;;;;;;;;;;;;11.94;80.42;100877.94;5111926;28;19970;-20
2021/10/09 12:41:17;;;;;;;;;;;;;;;11.77;81.74;100863.31;5112112;28;19947;-20
2021/10/09 12:43:43;;;;;;;;;;;;;;;11.90;79.55;100865.19;5111990;28;19916;-20
2021/10/09 12:46:09;;;;;;;;;;;;;;;12.11;78.85;100861.44;5111225;28;19916;-20
2021/10/09 12:48:34;;;;;;;;;;;;;;;11.96;80.69;100859.84;5111600;28;19965;-21
2021/10/09 12:50:59;;;;;;;;;;;;;;;12.29;78.52;100866.16;5111698;28;19912;-20
2021/10/09 12:53:24;;;;;;;;;;;;;;;12.10;78.36;100857.16;5112012;28;19972;-20
2021/10/09 12:55:50;;;;;;;;;;;;;;;12.23;78.92;100862.44;5111618;28;19927;-20
2021/10/09 12:58:15;;;;;;;;;;;;;;;12.08;79.47;100861.88;5111624;28;20405;-20
2021/10/09 13:00:40;;;;;;;;;;;;;;;12.14;79.89;100861.06;5111357;28;19912;-20
2021/10/09 13:03:06;;;;;;;;;;;;;;;12.06;81.49;100860.22;5111623;28;19919;-21
2021/10/09 13:05:31;;;;;;;;;;;;;;;12.02;79.43;100861.69;5111269;28;19916;-20
2021/10/09 13:08:00;;;;;;;;;;;;;;;11.98;80.91;100863.13;5111536;28;20372;-20
2021/10/09 13:10:25;;;;;;;;;;;;;;;11.83;80.73;100867.84;5093585;28;19919;-20
2021/10/09 13:12:51;;;;;;;;;;;;;;;11.87;81.00;100861.06;5111137;28;19912;-20
2021/10/09 13:15:19;;;;;;;;;;;;;;;11.95;80.61;100866.22;5111189;28;19926;-20
2021/10/09 13:17:44;;;;;;;;;;;;;;;11.58;81.72;100863.13;5111263;28;19911;-20
2021/10/09 13:20:10;;;;;;;;;;;;;;;11.83;80.50;100865.19;5111053;28;19912;-21
2021/10/09 13:22:35;;;;;;;;;;;;;;;11.93;80.03;100860.28;5110972;28;20279;-21
2021/10/09 13:25:00;;;;;;;;;;;;;;;11.89;79.51;100853.69;5111354;28;20340;-20
2021/10/09 13:27:26;;;;;;;;;;;;;;;12.00;79.34;100860.25;5111098;28;19911;-20
2021/10/09 13:29:51;;;;;;;;;;;;;;;11.53;82.12;100865.59;5111007;28;19961;-20
2021/10/09 13:32:16;;;;;;;;;;;;;;;11.29;82.90;100852.84;5092699;28;19920;-20
2021/10/09 13:34:41;;;;;;;;;;;;;;;11.67;81.85;100858.41;5110854;28;19925;-20
2021/10/09 13:37:07;;;;;;;;;;;;;;;11.73;81.92;100856.75;5110899;28;20342;-20
2021/10/09 13:39:32;;;;;;;;;;;;;;;11.90;81.57;100866.03;5110908;28;19919;-20
2021/10/09 13:41:57;;;;;;;;;;;;;;;11.89;80.84;100869.72;5110909;28;20386;-20
2021/10/09 13:44:23;;;;;;;;;;;;;;;12.07;80.97;100869.06;5110700;28;19977;-20
2021/10/09 13:46:48;;;;;;;;;;;;;;;12.18;80.24;100862.28;5110418;28;20375;-20
2021/10/09 13:49:13;;;;;;;;;;;;;;;12.16;80.64;100870.50;5110606;28;20371;-21
2021/10/09 13:51:38;;;;;;;;;;;;;;;11.78;81.92;100873.00;5110513;28;19962;-20
2021/10/09 13:54:04;;;;;;;;;;;;;;;11.80;81.61;100876.28;5110315;28;19915;-20
2021/10/09 13:56:29;;;;;;;;;;;;;;;11.83;81.38;100875.88;5110326;28;19915;-20
2021/10/09 13:58:54;;;;;;;;;;;;;;;11.77;82.07;100871.34;5109676;28;19933;-20
2021/10/09 14:01:20;;;;;;;;;;;;;;;11.68;82.40;100875.25;5110548;28;20314;-20
2021/10/09 14:03:46;;;;;;;;;;;;;;;12.00;81.77;100870.94;5110621;28;20030;-20
2021/10/09 14:06:11;;;;;;;;;;;;;;;12.01;81.77;100877.91;5110465;28;19945;-20
2021/10/09 14:08:37;;;;;;;;;;;;;;;11.78;81.95;100876.47;5109991;28;19935;-20
2021/10/09 14:11:02;;;;;;;;;;;;;;;11.68;81.99;100872.59;5110258;28;19966;-20
2021/10/09 14:13:27;;;;;;;;;;;;;;;11.89;81.80;100869.72;5110153;28;20398;-20
2021/10/09 14:15:54;;;;;;;;;;;;;;;12.13;81.50;100864.75;5110313;28;20367;-20
2021/10/09 14:18:19;;;;;;;;;;;;;;;12.47;80.01;100874.31;5091934;28;19918;-20
2021/10/09 14:20:48;;;;;;;;;;;;;;;12.48;79.97;100877.81;5109802;28;19911;-20
2021/10/09 14:23:14;;;;;;;;;;;;;;;12.20;80.51;100877.06;5110067;28;19946;-20
2021/10/09 14:25:39;;;;;;;;;;;;;;;12.10;80.49;100876.69;5109964;28;19959;-20
2021/10/09 14:28:04;;;;;;;;;;;;;;;12.19;80.69;100885.28;5109860;28;19916;-21
2021/10/09 14:30:30;;;;;;;;;;;;;;;12.36;80.01;100881.16;5110049;28;20372;-20
2021/10/09 14:32:56;;;;;;;;;;;;;;;12.68;78.98;100875.88;5109803;28;20342;-20
2021/10/09 14:35:21;;;;;;;;;;;;;;;12.38;79.04;100883.59;5109783;28;19920;-20
2021/10/09 14:37:46;;;;;;;;;;;;;;;12.34;80.07;100888.56;5109935;28;19922;-20
2021/10/09 14:40:12;;;;;;;;;;;;;;;12.22;81.19;100879.53;5109846;28;19919;-20
2021/10/09 14:42:37;;;;;;;;;;;;;;;12.39;80.26;100886.06;5109736;28;19965;-20
2021/10/09 14:45:02;;;;;;;;;;;;;;;12.32;80.33;100890.63;5109986;28;19912;-20